METAR Data
IDs: Format: Raw Decoded Include TAF

Data at: 1109 UTC 18 Jan 2022

KSBS 181055Z AUTO 00000KT 10SM CLR M12/M15 A2999 RMK AO1 T11251146
KSBS 181035Z AUTO 00000KT 10SM CLR M12/M14 A2998 RMK AO1 T11231143
KSBS 181015Z AUTO 00000KT 10SM CLR M12/M14 A2998 RMK AO1 T11231144
KSBS 180955Z AUTO 00000KT 10SM CLR M12/M14 A2999 RMK AO1 T11221145
KSBS 180935Z AUTO 00000KT 10SM CLR M12/M15 A2999 RMK AO1 T11231149
KSBS 180915Z AUTO 00000KT 10SM CLR M11/M14 A2999 RMK AO1 T11121141
KSBS 180855Z AUTO 00000KT 10SM CLR M11/M14 A2999 RMK AO1 T11081141
KSBS 180835Z AUTO 00000KT 10SM CLR M11/M14 A2999 RMK AO1 T11101142
KSBS 180815Z AUTO 00000KT 10SM CLR M12/M14 A2998 RMK AO1 T11181137
KSBS 180755Z AUTO 18003KT 10SM CLR M11/M14 A2999 RMK AO1 T11061137
KSBS 180735Z AUTO 00000KT 10SM CLR M10/M14 A2999 RMK AO1 T11031144
KSBS 180715Z AUTO 00000KT 10SM CLR M10/M14 A2999 RMK AO1 T11011136
KSBS 180655Z AUTO 00000KT 10SM CLR M11/M15 A3000 RMK AO1 T11131149
KSBS 180635Z AUTO 05004KT 10SM CLR M11/M14 A3001 RMK AO1 T11151140
KSBS 180615Z AUTO 00000KT 10SM CLR M09/M14 A3002 RMK AO1 T10861138
KSBS 180555Z AUTO 00000KT 10SM CLR M09/M13 A3002 RMK AO1 T10931134 11037 21117
KSBS 180535Z AUTO 00000KT 10SM CLR M08/M13 A3002 RMK AO1 T10841135
KSBS 180515Z AUTO 00000KT 10SM CLR M10/M13 A3002 RMK AO1 T11011134
KSBS 180455Z AUTO 00000KT 10SM CLR M10/M13 A3003 RMK AO1 T11001135 410141169
KSBS 180435Z AUTO 00000KT 10SM CLR M10/M14 A3003 RMK AO1 T11001138
KSBS 180415Z AUTO 00000KT 10SM CLR M10/M13 A3003 RMK AO1 T11011134
KSBS 180355Z AUTO 00000KT 10SM CLR M08/M13 A3003 RMK AO1 T10821130
KSBS 180335Z AUTO 00000KT 10SM CLR M07/M13 A3003 RMK AO1 T10731126
KSBS 180315Z AUTO 00000KT 10SM CLR M07/M12 A3004 RMK AO1 T10671124
KSBS 180255Z AUTO 00000KT 10SM CLR M07/M12 A3005 RMK AO1 T10671123
KSBS 180235Z AUTO 00000KT 10SM CLR M07/M12 A3005 RMK AO1 T10701122
KSBS 180215Z AUTO 00000KT 10SM CLR M08/M12 A3004 RMK AO1 T10761120
KSBS 180155Z AUTO 00000KT 10SM CLR M08/M13 A3003 RMK AO1 T10761127
KSBS 180135Z AUTO 00000KT 10SM CLR M07/M13 A3003 RMK AO1 T10671126
KSBS 180115Z AUTO 00000KT 10SM CLR M06/M12 A3003 RMK AO1 T10591120
KSBS 180055Z AUTO 00000KT 10SM CLR M06/M12 A3003 RMK AO1 T10571125
KSBS 180035Z AUTO 00000KT 10SM CLR M05/M13 A3003 RMK AO1 T10481132
KSBS 180015Z AUTO 00000KT 10SM CLR M04/M13 A3003 RMK AO1 T10421130
KSBS 172355Z AUTO 00000KT 10SM CLR M04/M12 A3003 RMK AO1 T10381121 11014 21098
KSBS 172335Z AUTO 00000KT 10SM CLR M03/M12 A3002 RMK AO1 T10321122
KSBS 172315Z AUTO 00000KT 10SM CLR M03/M12 A3003 RMK AO1 T10321121
KSBS 172255Z AUTO 00000KT 10SM CLR M03/M13 A3003 RMK AO1 T10341126
KSBS 172235Z AUTO 00000KT 10SM CLR M04/M12 A3003 RMK AO1 T10361124
KSBS 172215Z AUTO 00000KT 10SM CLR M02/M12 A3005 RMK AO1 T10221121
KSBS 172155Z AUTO 00000KT 10SM CLR M01/M13 A3005 RMK AO1 T10141132
KSBS 172135Z AUTO 00000KT 10SM CLR M03/M13 A3006 RMK AO1 T10271134
KSBS 172115Z AUTO 00000KT 10SM CLR M04/M13 A3007 RMK AO1 T10361128
KSBS 172055Z AUTO 23003KT 10SM CLR M04/M13 A3007 RMK AO1 T10401135
KSBS 172035Z AUTO 26003KT 10SM CLR M03/M13 A3006 RMK AO1 T10311132
KSBS 172015Z AUTO 00000KT 10SM CLR M04/M13 A3007 RMK AO1 T10391129
KSBS 171955Z AUTO 00000KT 10SM CLR M04/M14 A3010 RMK AO1 T10361140
KSBS 171935Z AUTO 00000KT 10SM CLR M05/M14 A3011 RMK AO1 T10471144
KSBS 171915Z AUTO 00000KT 10SM CLR M07/M14 A3012 RMK AO1 T10701145
KSBS 171855Z AUTO 00000KT 10SM CLR M08/M15 A3013 RMK AO1 T10851153
KSBS 171835Z AUTO 00000KT 10SM CLR M09/M16 A3013 RMK AO1 T10931160
KSBS 171815Z AUTO 00000KT 10SM CLR M10/M16 A3016 RMK AO1 T10961159
KSBS 171755Z AUTO 00000KT 10SM CLR M10/M16 A3016 RMK AO1 T11001163 11100 21169
KSBS 171735Z AUTO 00000KT 10SM CLR M11/M16 A3016 RMK AO1 T11091159
KSBS 171715Z AUTO 00000KT 10SM CLR M12/M16 A3016 RMK AO1 T11161162
KSBS 171655Z AUTO 00000KT 10SM CLR M12/M16 A3016 RMK AO1 T11241160
KSBS 171635Z AUTO 00000KT 10SM CLR M14/M17 A3016 RMK AO1 T11361169
KSBS 171615Z AUTO 00000KT 10SM CLR M14/M17 A3016 RMK AO1 T11441169
KSBS 171555Z AUTO 00000KT 10SM CLR M14/M17 A3016 RMK AO1 T11411166
KSBS 171535Z AUTO 00000KT 10SM CLR M15/M17 A3016 RMK AO1 T11501166
KSBS 171515Z AUTO 00000KT 10SM CLR M15/M17 A3016 RMK AO1 T11531168
KSBS 171455Z AUTO 00000KT 10SM CLR M17/M18 A3016 RMK AO1 T11671180
KSBS 171435Z AUTO 00000KT 10SM CLR M16/M17 A3015 RMK AO1 T11591172
KSBS 171415Z AUTO 00000KT 10SM CLR M16/M17 A3015 RMK AO1 T11591170
KSBS 171355Z AUTO 00000KT 10SM CLR M15/M16 A3015 RMK AO1 T11481162
KSBS 171335Z AUTO 00000KT 10SM CLR M16/M17 A3015 RMK AO1 T11581168
KSBS 171315Z AUTO 13004KT 10SM CLR M14/M16 A3015 RMK AO1 T11361159
KSBS 171255Z AUTO 00000KT 10SM CLR M14/M16 A3015 RMK AO1 T11441157
KSBS 171235Z AUTO 00000KT 10SM CLR M15/M17 A3015 RMK AO1 T11501166
KSBS 171215Z AUTO 00000KT 10SM CLR M15/M16 A3016 RMK AO1 T11461165
KSBS 171155Z AUTO 00000KT 10SM CLR M15/M16 A3016 RMK AO1 T11471163 11111 21162
KSBS 171135Z AUTO 00000KT 10SM CLR M15/M16 A3016 RMK AO1 T11481162
KSBS 171115Z AUTO 00000KT 10SM CLR M14/M16 A3016 RMK AO1 T11451157
KSBS 171055Z AUTO 00000KT 10SM CLR M13/M15 A3016 RMK AO1 T11311152
KSBS 171035Z AUTO 00000KT 10SM CLR M14/M16 A3018 RMK AO1 T11361156
KSBS 171015Z AUTO 00000KT 10SM CLR M14/M17 A3018 RMK AO1 T11441166
KSBS 170955Z AUTO 00000KT 10SM CLR M15/M16 A3019 RMK AO1 T11471159
KSBS 170935Z AUTO 00000KT 10SM CLR M14/M16 A3019 RMK AO1 T11451161
KSBS 170915Z AUTO 00000KT 10SM CLR M15/M17 A3019 RMK AO1 T11521167
KSBS 170855Z AUTO 04003KT 10SM CLR M15/M16 A3019 RMK AO1 T11481161
KSBS 170835Z AUTO 23004KT 10SM CLR M13/M15 A3019 RMK AO1 T11321155
KSBS 170815Z AUTO 00000KT 10SM CLR M12/M14 A3019 RMK AO1 T11221144
KSBS 170755Z AUTO 00000KT 10SM CLR M13/M14 A3019 RMK AO1 T11261144
KSBS 170735Z AUTO 00000KT 10SM CLR M13/M15 A3021 RMK AO1 T11321149
KSBS 170715Z AUTO 00000KT 10SM CLR M13/M15 A3020 RMK AO1 T11321151
KSBS 170655Z AUTO 00000KT 10SM CLR M11/M14 A3020 RMK AO1 T11151140
KSBS 170635Z AUTO 00000KT 10SM CLR M12/M14 A3020 RMK AO1 T11251140
KSBS 170615Z AUTO 00000KT 10SM CLR M13/M14 A3020 RMK AO1 T11271145
KSBS 170555Z AUTO 00000KT 10SM CLR M12/M14 A3020 RMK AO1 T11251141 11062 21127
KSBS 170535Z AUTO 00000KT 10SM CLR M12/M14 A3020 RMK AO1 T11221142
KSBS 170515Z AUTO 00000KT 10SM CLR M12/M14 A3020 RMK AO1 T11171138
KSBS 170455Z AUTO 00000KT 10SM CLR M11/M14 A3020 RMK AO1 T11091136 410491178
KSBS 170435Z AUTO 00000KT 10SM CLR M10/M13 A3021 RMK AO1 T11051130
KSBS 170415Z AUTO 00000KT 10SM CLR M09/M13 A3021 RMK AO1 T10951130
KSBS 170355Z AUTO 00000KT 10SM CLR M10/M13 A3021 RMK AO1 T11031133
KSBS 170335Z AUTO 00000KT 10SM CLR M10/M13 A3021 RMK AO1 T11041131
KSBS 170315Z AUTO 10003KT 10SM CLR M09/M13 A3021 RMK AO1 T10941128
KSBS 170255Z AUTO 00000KT 10SM CLR M09/M13 A3020 RMK AO1 T10941127
KSBS 170235Z AUTO 00000KT 10SM CLR M09/M13 A3021 RMK AO1 T10921133
KSBS 170215Z AUTO 00000KT 10SM CLR M09/M13 A3022 RMK AO1 T10921131
KSBS 170155Z AUTO 00000KT 10SM CLR M08/M13 A3021 RMK AO1 T10851128
KSBS 170135Z AUTO 00000KT 10SM CLR M08/M13 A3021 RMK AO1 T10801131
KSBS 170115Z AUTO 00000KT 10SM CLR M06/M13 A3020 RMK AO1 T10641126
KSBS 170055Z AUTO 00000KT 10SM CLR M06/M12 A3019 RMK AO1 T10631124
KSBS 170035Z AUTO 00000KT 10SM CLR M07/M13 A3019 RMK AO1 T10741126
KSBS 170015Z AUTO 00000KT 10SM CLR M07/M12 A3019 RMK AO1 T10691123
KSBS 162355Z AUTO 00000KT 10SM CLR M06/M13 A3019 RMK AO1 T10651126 11049 21116
KSBS 162335Z AUTO 00000KT 10SM CLR M07/M13 A3019 RMK AO1 T10661129
KSBS 162315Z AUTO 00000KT 10SM CLR M06/M13 A3020 RMK AO1 T10631130